createdAt,value
2023-01-19T00:01:43.927Z,1.60
2023-01-19T00:04:11.952Z,1.60
2023-01-19T00:06:42.550Z,1.60
2023-01-19T00:09:10.934Z,1.60
2023-01-19T00:11:39.505Z,1.50
2023-01-19T00:14:07.731Z,1.50
2023-01-19T00:16:36.194Z,1.50
2023-01-19T00:19:04.612Z,1.50
2023-01-19T00:21:32.651Z,1.50
2023-01-19T00:24:02.043Z,1.50
2023-01-19T00:26:30.080Z,1.50
2023-01-19T00:28:58.187Z,1.50
2023-01-19T00:31:26.503Z,1.50
2023-01-19T00:33:55.234Z,1.50
2023-01-19T00:36:23.312Z,1.50
2023-01-19T00:38:51.271Z,1.50
2023-01-19T00:41:41.224Z,1.50
2023-01-19T00:44:09.970Z,1.50
2023-01-19T00:46:38.180Z,1.50
2023-01-19T00:49:06.657Z,1.50
2023-01-19T00:51:34.658Z,1.50
2023-01-19T00:54:05.176Z,1.50
2023-01-19T00:56:35.382Z,1.50
2023-01-19T00:59:05.118Z,1.60
2023-01-19T01:01:45.429Z,1.60
2023-01-19T01:04:15.173Z,1.60
2023-01-19T01:06:43.239Z,1.60
2023-01-19T01:09:13.042Z,1.60
2023-01-19T01:11:42.983Z,1.60
2023-01-19T01:14:13.339Z,1.60
2023-01-19T01:16:42.665Z,1.60
2023-01-19T01:19:10.705Z,1.60
2023-01-19T01:21:41.862Z,1.60
2023-01-19T01:24:10.592Z,1.60
2023-01-19T01:26:38.660Z,1.60
2023-01-19T01:29:08.703Z,1.60
2023-01-19T01:31:36.753Z,1.60
2023-01-19T01:34:05.900Z,1.60
2023-01-19T01:36:33.944Z,1.60
2023-01-19T01:39:01.976Z,1.60
2023-01-19T01:41:30.326Z,1.60
2023-01-19T01:44:01.516Z,1.60
2023-01-19T01:46:32.366Z,1.50
2023-01-19T01:49:06.597Z,1.50
2023-01-19T01:51:39.790Z,1.50
2023-01-19T01:54:15.393Z,1.50
2023-01-19T01:56:45.242Z,1.50
2023-01-19T01:59:26.314Z,1.50
2023-01-19T02:02:15.757Z,1.40
2023-01-19T02:04:48.795Z,1.40
2023-01-19T02:07:43.398Z,1.30
2023-01-19T02:10:29.226Z,1.20
2023-01-19T02:13:16.265Z,1.20
2023-01-19T02:15:45.314Z,1.20
2023-01-19T02:18:15.157Z,1.20
2023-01-19T02:20:48.670Z,1.20
2023-01-19T02:23:23.315Z,1.10
2023-01-19T02:25:54.726Z,1.10
2023-01-19T02:28:23.332Z,1.10
2023-01-19T02:30:51.533Z,1.00
2023-01-19T02:33:19.581Z,1.00
2023-01-19T02:35:49.261Z,1.00
2023-01-19T02:38:20.875Z,1.00
2023-01-19T02:40:50.323Z,1.00
2023-01-19T02:43:21.264Z,1.00
2023-01-19T02:45:50.465Z,0.90
2023-01-19T02:48:21.486Z,0.90
2023-01-19T02:50:53.071Z,0.90
2023-01-19T02:53:53.932Z,1.00
2023-01-19T02:56:49.906Z,0.90
2023-01-19T02:59:29.987Z,0.90
2023-01-19T03:02:12.818Z,0.90
2023-01-19T03:04:55.842Z,0.90
2023-01-19T03:07:35.307Z,0.90
2023-01-19T03:10:08.815Z,1.00
2023-01-19T03:12:45.504Z,1.00
2023-01-19T03:15:22.859Z,1.00
2023-01-19T03:17:54.105Z,0.90
2023-01-19T03:20:25.495Z,0.90
2023-01-19T03:22:58.896Z,0.90
2023-01-19T03:25:29.518Z,0.90
2023-01-19T03:27:58.633Z,1.00
2023-01-19T03:30:31.135Z,0.90
2023-01-19T03:33:04.825Z,0.90
2023-01-19T03:35:36.586Z,1.00
2023-01-19T03:38:08.910Z,1.00
2023-01-19T03:40:38.130Z,0.90
2023-01-19T03:43:07.442Z,0.90
2023-01-19T03:45:40.265Z,1.00
2023-01-19T03:48:09.181Z,1.00
2023-01-19T03:50:37.171Z,1.00
2023-01-19T03:53:11.271Z,0.90
2023-01-19T03:55:42.056Z,0.90
2023-01-19T03:58:10.246Z,0.90
2023-01-19T04:00:39.640Z,0.80
2023-01-19T04:03:12.359Z,0.80
2023-01-19T04:05:40.663Z,0.90
2023-01-19T04:08:08.781Z,0.90
2023-01-19T04:10:37.197Z,0.90
2023-01-19T04:13:05.754Z,0.90
2023-01-19T04:15:33.816Z,0.90
2023-01-19T04:18:03.329Z,0.90
2023-01-19T04:20:31.303Z,0.90
2023-01-19T04:23:01.446Z,0.90
2023-01-19T04:25:30.801Z,0.90
2023-01-19T04:27:58.980Z,1.00
2023-01-19T04:30:27.506Z,1.00
2023-01-19T04:32:56.305Z,0.90
2023-01-19T04:35:25.683Z,1.00
2023-01-19T04:37:53.654Z,1.00
2023-01-19T04:40:21.817Z,1.00
2023-01-19T04:42:49.984Z,1.00
2023-01-19T04:45:18.809Z,1.00
2023-01-19T04:47:46.797Z,1.00
2023-01-19T04:50:15.221Z,1.00
2023-01-19T04:52:44.644Z,1.10
2023-01-19T04:55:13.461Z,1.10
2023-01-19T04:57:41.488Z,1.10
2023-01-19T05:00:10.904Z,1.10
2023-01-19T05:02:38.982Z,1.10
2023-01-19T05:05:07.401Z,1.10
2023-01-19T05:07:35.486Z,1.10
2023-01-19T05:10:05.430Z,1.10
2023-01-19T05:12:33.776Z,1.00
2023-01-19T05:15:02.015Z,1.00
2023-01-19T05:17:30.210Z,1.00
2023-01-19T05:19:58.236Z,1.00
2023-01-19T05:22:26.439Z,1.00
2023-01-19T05:24:54.497Z,1.00
2023-01-19T05:27:23.800Z,1.00
2023-01-19T05:29:52.591Z,1.00
2023-01-19T05:32:20.560Z,1.00
2023-01-19T05:34:49.053Z,1.00
2023-01-19T05:37:17.237Z,1.00
2023-01-19T05:39:45.663Z,1.00
2023-01-19T05:42:13.866Z,1.00
2023-01-19T05:44:43.757Z,1.00
2023-01-19T05:47:11.811Z,1.00
2023-01-19T05:49:39.823Z,1.00
2023-01-19T05:52:08.344Z,0.90
2023-01-19T05:54:36.313Z,0.90
2023-01-19T05:57:04.866Z,0.90
2023-01-19T05:59:32.976Z,0.90
2023-01-19T06:02:03.013Z,0.90
2023-01-19T06:04:31.203Z,0.90
2023-01-19T06:06:59.649Z,0.90
2023-01-19T06:09:28.346Z,0.90
2023-01-19T06:11:57.765Z,0.80
2023-01-19T06:14:26.985Z,0.90
2023-01-19T06:16:54.975Z,0.80
2023-01-19T06:19:24.834Z,0.90
2023-01-19T06:21:52.855Z,0.90
2023-01-19T06:24:23.065Z,0.90
2023-01-19T06:26:51.121Z,0.80
2023-01-19T06:29:19.608Z,0.90
2023-01-19T06:31:47.935Z,0.90
2023-01-19T06:34:15.969Z,0.90
2023-01-19T06:36:46.609Z,0.80
2023-01-19T06:39:14.691Z,0.80
2023-01-19T06:41:43.100Z,0.80
2023-01-19T06:44:11.095Z,0.80
2023-01-19T06:46:39.415Z,0.80
2023-01-19T06:49:07.616Z,0.70
2023-01-19T06:51:36.247Z,0.70
2023-01-19T06:54:05.816Z,0.70
2023-01-19T06:56:33.924Z,0.70
2023-01-19T06:59:01.985Z,0.70
2023-01-19T07:01:31.009Z,0.70
2023-01-19T07:03:59.630Z,0.70
2023-01-19T07:06:27.740Z,0.60
2023-01-19T07:08:56.081Z,0.60
2023-01-19T07:11:31.550Z,0.60
2023-01-19T07:13:59.873Z,0.60
2023-01-19T07:16:28.196Z,0.60
2023-01-19T07:18:56.870Z,0.60
2023-01-19T07:21:25.313Z,0.60
2023-01-19T07:23:54.144Z,0.70
2023-01-19T07:26:24.994Z,0.70
2023-01-19T07:28:54.448Z,0.60
2023-01-19T07:31:22.738Z,0.70
2023-01-19T07:33:51.359Z,0.70
2023-01-19T07:36:19.809Z,0.60
2023-01-19T07:38:47.901Z,0.60
2023-01-19T07:41:16.066Z,0.60
2023-01-19T07:43:44.405Z,0.60
2023-01-19T07:46:13.808Z,0.60
2023-01-19T07:48:41.935Z,0.60
2023-01-19T07:51:13.003Z,0.60
2023-01-19T07:53:41.836Z,0.60
2023-01-19T07:56:10.545Z,0.60
2023-01-19T07:58:38.691Z,0.60
2023-01-19T08:01:08.586Z,0.60
2023-01-19T08:03:38.490Z,0.60
2023-01-19T08:06:07.835Z,0.60
2023-01-19T08:08:36.229Z,0.70
2023-01-19T08:11:06.535Z,0.70
2023-01-19T08:13:34.484Z,0.70
2023-01-19T08:16:02.593Z,0.70
2023-01-19T08:18:30.632Z,0.70
2023-01-19T08:21:03.225Z,0.80
2023-01-19T08:23:31.654Z,0.80
2023-01-19T08:26:00.911Z,0.80
2023-01-19T08:28:29.589Z,0.80
2023-01-19T08:31:01.492Z,0.80
2023-01-19T08:33:33.308Z,0.90
2023-01-19T08:36:02.971Z,0.90
2023-01-19T08:38:30.941Z,0.90
2023-01-19T08:40:59.013Z,1.00
2023-01-19T08:43:27.368Z,1.00
2023-01-19T08:45:56.481Z,1.10
2023-01-19T08:48:25.280Z,1.10
2023-01-19T08:50:53.721Z,1.20
2023-01-19T08:53:24.510Z,1.20
2023-01-19T08:55:57.355Z,1.30
2023-01-19T08:58:25.386Z,1.30
2023-01-19T09:00:54.113Z,1.30
2023-01-19T09:03:22.774Z,1.30
2023-01-19T09:05:51.046Z,1.30
2023-01-19T09:08:19.275Z,1.30
2023-01-19T09:10:50.772Z,1.30
2023-01-19T09:13:20.554Z,1.30
2023-01-19T09:15:49.367Z,1.30
2023-01-19T09:18:20.199Z,1.30
2023-01-19T09:20:50.585Z,1.30
2023-01-19T09:23:22.743Z,1.40
2023-01-19T09:25:57.891Z,1.40
2023-01-19T09:28:27.452Z,1.40
2023-01-19T09:30:55.825Z,1.40
2023-01-19T09:33:24.649Z,1.40
2023-01-19T09:35:53.596Z,1.40
2023-01-19T09:38:22.464Z,1.50
2023-01-19T09:40:54.264Z,1.50
2023-01-19T09:43:32.813Z,1.40
2023-01-19T09:46:02.577Z,1.50
2023-01-19T09:48:40.826Z,1.60
2023-01-19T09:51:16.575Z,1.60
2023-01-19T09:54:04.406Z,1.60
2023-01-19T09:56:34.554Z,1.60
2023-01-19T09:59:22.992Z,1.60
2023-01-19T10:02:07.212Z,1.60
2023-01-19T10:04:56.222Z,1.60
2023-01-19T10:07:43.985Z,1.60
2023-01-19T10:10:21.590Z,1.70
2023-01-19T10:13:05.076Z,1.60
2023-01-19T10:15:42.779Z,1.70
2023-01-19T10:18:17.522Z,1.70
2023-01-19T10:20:51.011Z,1.70
2023-01-19T10:23:39.607Z,1.80
2023-01-19T10:26:13.021Z,1.90
2023-01-19T10:28:44.415Z,1.90
2023-01-19T10:31:13.491Z,1.90
2023-01-19T10:33:42.414Z,1.80
2023-01-19T10:36:19.856Z,1.90
2023-01-19T10:38:48.969Z,1.90
2023-01-19T10:41:24.188Z,2.00
2023-01-19T10:44:02.066Z,2.00
2023-01-19T10:46:38.527Z,2.00
2023-01-19T10:49:07.952Z,2.10
2023-01-19T10:51:47.354Z,2.10
2023-01-19T10:54:15.532Z,2.10
2023-01-19T10:56:44.133Z,2.00
2023-01-19T10:59:31.792Z,2.10
2023-01-19T11:02:21.408Z,2.10
2023-01-19T11:04:52.836Z,2.20
2023-01-19T11:07:23.055Z,2.20
2023-01-19T11:10:11.620Z,2.10
2023-01-19T11:12:42.547Z,2.10
2023-01-19T11:15:16.948Z,2.30
2023-01-19T11:17:48.573Z,2.30
2023-01-19T11:20:22.696Z,2.20
2023-01-19T11:23:05.218Z,2.30
2023-01-19T11:25:35.474Z,2.40
2023-01-19T11:28:04.709Z,2.50
2023-01-19T11:30:36.492Z,2.50
2023-01-19T11:33:06.506Z,2.40
2023-01-19T11:35:39.641Z,2.50
2023-01-19T11:38:25.742Z,2.50
2023-01-19T11:40:56.749Z,2.40
2023-01-19T11:43:39.744Z,2.30
2023-01-19T11:46:18.696Z,2.40
2023-01-19T11:48:56.571Z,2.50
2023-01-19T11:51:28.281Z,2.30
2023-01-19T11:53:56.393Z,2.40
2023-01-19T11:56:28.220Z,2.40
2023-01-19T11:58:57.398Z,2.40
2023-01-19T12:01:31.844Z,2.50
2023-01-19T12:04:05.652Z,2.50
2023-01-19T12:06:36.823Z,2.50
2023-01-19T12:09:09.616Z,2.50
2023-01-19T12:11:41.511Z,2.40
2023-01-19T12:14:18.137Z,2.50
2023-01-19T12:16:48.729Z,2.50
2023-01-19T12:19:19.849Z,2.60
2023-01-19T12:21:49.003Z,2.60
2023-01-19T12:24:19.714Z,2.60
2023-01-19T12:26:54.315Z,2.60
2023-01-19T12:29:25.500Z,2.60
2023-01-19T12:32:19.076Z,2.50
2023-01-19T12:34:48.704Z,2.50
2023-01-19T12:37:41.863Z,2.50
2023-01-19T12:40:27.327Z,2.50
2023-01-19T12:43:00.268Z,2.50
2023-01-19T12:45:33.113Z,2.60
2023-01-19T12:48:03.571Z,2.60
2023-01-19T12:50:37.752Z,2.80
2023-01-19T12:53:17.564Z,2.80
2023-01-19T12:55:47.839Z,2.80
2023-01-19T12:58:18.933Z,2.70
2023-01-19T13:00:49.748Z,2.80
2023-01-19T13:03:45.222Z,2.70
2023-01-19T13:06:14.416Z,2.80
2023-01-19T13:09:00.955Z,2.70
2023-01-19T13:11:34.048Z,2.70
2023-01-19T13:14:36.359Z,2.60
2023-01-19T13:17:28.581Z,2.60
2023-01-19T13:20:07.810Z,2.60
2023-01-19T13:23:22.169Z,2.50
2023-01-19T13:25:55.928Z,2.50
2023-01-19T13:28:31.804Z,2.50
2023-01-19T13:31:02.613Z,2.50
2023-01-19T13:33:40.956Z,2.40
2023-01-19T13:36:26.555Z,2.30
2023-01-19T13:38:55.776Z,2.30
2023-01-19T13:41:28.072Z,2.30
2023-01-19T13:44:01.948Z,2.30
2023-01-19T13:46:31.609Z,2.30
2023-01-19T13:49:03.640Z,2.30
2023-01-19T13:51:33.348Z,2.30
2023-01-19T13:54:02.822Z,2.30
2023-01-19T13:56:32.112Z,2.30
2023-01-19T13:59:02.367Z,2.40
2023-01-19T14:01:32.175Z,2.40
2023-01-19T14:04:00.700Z,2.30
2023-01-19T14:06:37.565Z,2.30
2023-01-19T14:09:23.856Z,2.30
2023-01-19T14:12:14.061Z,2.30
2023-01-19T14:14:42.907Z,2.30
2023-01-19T14:17:25.482Z,2.30
2023-01-19T14:19:54.994Z,2.30
2023-01-19T14:22:38.916Z,2.30
2023-01-19T14:25:29.339Z,2.30
2023-01-19T14:28:29.303Z,2.20
2023-01-19T14:30:58.956Z,2.20
2023-01-19T14:33:37.882Z,2.20
2023-01-19T14:36:11.978Z,2.20
2023-01-19T14:38:44.716Z,2.20
2023-01-19T14:41:13.682Z,2.10
2023-01-19T14:43:45.158Z,2.10
2023-01-19T14:46:18.847Z,2.10
2023-01-19T14:48:48.726Z,2.10
2023-01-19T14:51:19.678Z,2.10
2023-01-19T14:53:52.223Z,2.10
2023-01-19T14:56:27.258Z,2.10
2023-01-19T14:58:58.450Z,2.10
2023-01-19T15:01:29.350Z,2.00
2023-01-19T15:03:57.799Z,2.10
2023-01-19T15:06:27.384Z,2.00
2023-01-19T15:08:59.266Z,2.00
2023-01-19T15:11:30.870Z,2.00
2023-01-19T15:13:59.170Z,2.00
2023-01-19T15:16:28.769Z,1.90
2023-01-19T15:18:56.864Z,1.90
2023-01-19T15:21:26.678Z,1.90
2023-01-19T15:23:58.295Z,1.90
2023-01-19T15:26:27.665Z,1.90
2023-01-19T15:28:57.470Z,1.90
2023-01-19T15:31:27.631Z,1.80
2023-01-19T15:33:56.378Z,1.90
2023-01-19T15:36:25.308Z,1.80
2023-01-19T15:38:53.480Z,1.80
2023-01-19T15:41:26.945Z,1.80
2023-01-19T15:43:55.359Z,1.80
2023-01-19T15:46:25.267Z,1.70
2023-01-19T15:48:54.620Z,1.70
2023-01-19T15:51:25.157Z,1.70
2023-01-19T15:53:54.399Z,1.70
2023-01-19T15:56:26.908Z,1.70
2023-01-19T15:58:56.111Z,1.60
2023-01-19T16:01:31.329Z,1.60
2023-01-19T16:04:01.126Z,1.60
2023-01-19T16:06:29.694Z,1.60
2023-01-19T16:09:01.327Z,1.60
2023-01-19T16:11:32.664Z,1.60
2023-01-19T16:14:01.421Z,1.50
2023-01-19T16:16:46.147Z,1.50
2023-01-19T16:19:15.732Z,1.50
2023-01-19T16:21:44.938Z,1.50
2023-01-19T16:24:13.267Z,1.50
2023-01-19T16:26:43.707Z,1.50
2023-01-19T16:29:11.933Z,1.50
2023-01-19T16:31:42.823Z,1.50
2023-01-19T16:34:11.730Z,1.50
2023-01-19T16:36:41.272Z,1.50
2023-01-19T16:39:12.630Z,1.50
2023-01-19T16:41:42.266Z,1.50
2023-01-19T16:44:12.286Z,1.50
2023-01-19T16:46:44.568Z,1.40
2023-01-19T16:49:16.780Z,1.40
2023-01-19T16:51:46.628Z,1.40
2023-01-19T16:54:17.522Z,1.40
2023-01-19T16:56:50.243Z,1.40
2023-01-19T16:59:22.470Z,1.50
2023-01-19T17:01:52.465Z,1.40
2023-01-19T17:04:22.231Z,1.40
2023-01-19T17:06:54.607Z,1.40
2023-01-19T17:09:22.970Z,1.40
2023-01-19T17:11:54.889Z,1.40
2023-01-19T17:14:27.000Z,1.40
2023-01-19T17:16:55.870Z,1.40
2023-01-19T17:19:25.350Z,1.40
2023-01-19T17:21:53.850Z,1.40
2023-01-19T17:24:21.802Z,1.30
2023-01-19T17:26:49.918Z,1.30
2023-01-19T17:29:19.495Z,1.30
2023-01-19T17:31:47.877Z,1.30
2023-01-19T17:34:15.930Z,1.30
2023-01-19T17:36:44.001Z,1.30
2023-01-19T17:39:14.967Z,1.30
2023-01-19T17:41:43.933Z,1.30
2023-01-19T17:44:11.908Z,1.30
2023-01-19T17:46:41.368Z,1.30
2023-01-19T17:49:09.638Z,1.30
2023-01-19T17:51:38.109Z,1.30
2023-01-19T17:54:06.871Z,1.30
2023-01-19T17:56:38.642Z,1.30
2023-01-19T17:59:12.047Z,1.30
2023-01-19T18:01:42.884Z,1.30
2023-01-19T18:04:11.148Z,1.30
2023-01-19T18:06:40.466Z,1.30
2023-01-19T18:09:10.041Z,1.30
2023-01-19T18:11:40.945Z,1.30
2023-01-19T18:14:12.529Z,1.30
2023-01-19T18:16:42.081Z,1.20
2023-01-19T18:19:10.191Z,1.20
2023-01-19T18:21:38.730Z,1.20
2023-01-19T18:24:08.599Z,1.20
2023-01-19T18:26:37.641Z,1.20
2023-01-19T18:29:08.353Z,1.20
2023-01-19T18:31:39.816Z,1.20
2023-01-19T18:34:09.869Z,1.20
2023-01-19T18:36:38.333Z,1.20
2023-01-19T18:39:06.972Z,1.20
2023-01-19T18:41:40.345Z,1.20
2023-01-19T18:44:09.061Z,1.20
2023-01-19T18:46:37.418Z,1.20
2023-01-19T18:49:06.298Z,1.20
2023-01-19T18:51:36.692Z,1.20
2023-01-19T18:54:05.042Z,1.20
2023-01-19T18:56:33.357Z,1.20
2023-01-19T18:59:03.210Z,1.20
2023-01-19T19:01:34.948Z,1.20
2023-01-19T19:04:03.603Z,1.20
2023-01-19T19:06:31.697Z,1.20
2023-01-19T19:09:04.230Z,1.20
2023-01-19T19:11:32.503Z,1.20
2023-01-19T19:14:02.686Z,1.20
2023-01-19T19:16:34.721Z,1.20
2023-01-19T19:19:04.373Z,1.20
2023-01-19T19:21:32.810Z,1.20
2023-01-19T19:24:03.256Z,1.20
2023-01-19T19:26:31.473Z,1.10
2023-01-19T19:29:01.303Z,1.20
2023-01-19T19:31:30.497Z,1.20
2023-01-19T19:33:59.877Z,1.20
2023-01-19T19:36:29.908Z,1.20
2023-01-19T19:39:00.087Z,1.10
2023-01-19T19:41:32.185Z,1.20
2023-01-19T19:44:00.594Z,1.20
2023-01-19T19:46:29.703Z,1.20
2023-01-19T19:48:59.243Z,1.20
2023-01-19T19:51:29.194Z,1.10
2023-01-19T19:54:00.463Z,1.10
2023-01-19T19:56:31.189Z,1.20
2023-01-19T19:59:00.212Z,1.10
2023-01-19T20:01:33.384Z,1.10
2023-01-19T20:04:07.913Z,1.20
2023-01-19T20:06:38.910Z,1.20
2023-01-19T20:09:09.412Z,1.20
2023-01-19T20:11:38.859Z,1.10
2023-01-19T20:14:08.222Z,1.10
2023-01-19T20:16:38.169Z,1.10
2023-01-19T20:19:07.366Z,1.10
2023-01-19T20:21:37.555Z,1.10
2023-01-19T20:24:08.187Z,1.10
2023-01-19T20:26:40.846Z,1.10
2023-01-19T20:29:10.348Z,1.00
2023-01-19T20:31:40.732Z,1.10
2023-01-19T20:34:11.294Z,1.10
2023-01-19T20:36:39.400Z,1.10
2023-01-19T20:39:10.955Z,1.10
2023-01-19T20:41:45.014Z,1.00
2023-01-19T20:44:14.331Z,1.00
2023-01-19T20:46:43.239Z,1.00
2023-01-19T20:49:11.520Z,1.00
2023-01-19T20:51:43.318Z,1.00
2023-01-19T20:54:11.613Z,1.00
2023-01-19T20:56:41.803Z,0.90
2023-01-19T20:59:10.540Z,0.90
2023-01-19T21:01:40.139Z,0.90
2023-01-19T21:04:09.299Z,0.90
2023-01-19T21:06:40.697Z,0.90
2023-01-19T21:09:10.855Z,0.90
2023-01-19T21:11:41.060Z,0.80
2023-01-19T21:14:09.287Z,0.90
2023-01-19T21:16:38.216Z,0.80
2023-01-19T21:19:07.104Z,0.80
2023-01-19T21:21:35.285Z,0.80
2023-01-19T21:24:05.204Z,0.80
2023-01-19T21:26:34.486Z,0.80
2023-01-19T21:29:05.125Z,0.80
2023-01-19T21:31:33.147Z,0.80
2023-01-19T21:34:01.224Z,0.70
2023-01-19T21:36:31.874Z,0.70
2023-01-19T21:39:02.234Z,0.70
2023-01-19T21:41:31.521Z,0.70
2023-01-19T21:44:01.226Z,0.70
2023-01-19T21:46:33.154Z,0.70
2023-01-19T21:49:03.043Z,0.70
2023-01-19T21:51:33.415Z,0.70
2023-01-19T21:54:02.070Z,0.60
2023-01-19T21:56:31.255Z,0.60
2023-01-19T21:59:02.297Z,0.60
2023-01-19T22:01:32.467Z,0.60
2023-01-19T22:04:03.412Z,0.60
2023-01-19T22:06:31.981Z,0.70
2023-01-19T22:09:00.718Z,0.60
2023-01-19T22:11:32.311Z,0.60
2023-01-19T22:14:00.967Z,0.60
2023-01-19T22:16:31.411Z,0.60
2023-01-19T22:19:02.243Z,0.60
2023-01-19T22:21:33.372Z,0.60
2023-01-19T22:24:02.859Z,0.60
2023-01-19T22:26:34.617Z,0.60
2023-01-19T22:29:05.141Z,0.60
2023-01-19T22:31:35.345Z,0.60
2023-01-19T22:34:04.487Z,0.60
2023-01-19T22:36:34.328Z,0.60
2023-01-19T22:39:04.744Z,0.60
2023-01-19T22:41:35.025Z,0.60
2023-01-19T22:44:05.958Z,0.60
2023-01-19T22:46:37.256Z,0.60
2023-01-19T22:49:07.465Z,0.70
2023-01-19T22:51:36.769Z,0.60
2023-01-19T22:54:05.949Z,0.60
2023-01-19T22:56:36.307Z,0.60
2023-01-19T22:59:06.447Z,0.60
2023-01-19T23:01:38.328Z,0.60
2023-01-19T23:04:08.075Z,0.60
2023-01-19T23:06:37.833Z,0.60
2023-01-19T23:09:08.383Z,0.60
2023-01-19T23:11:38.484Z,0.60
2023-01-19T23:14:10.124Z,0.60
2023-01-19T23:16:39.495Z,0.60
2023-01-19T23:19:07.716Z,0.60
2023-01-19T23:21:37.287Z,0.60
2023-01-19T23:24:06.320Z,0.60
2023-01-19T23:26:38.022Z,0.60
2023-01-19T23:29:08.390Z,0.60
2023-01-19T23:31:38.170Z,0.60
2023-01-19T23:34:10.007Z,0.60
2023-01-19T23:36:40.229Z,0.60
2023-01-19T23:39:12.924Z,0.60
2023-01-19T23:41:41.008Z,0.60
2023-01-19T23:44:10.041Z,0.60
2023-01-19T23:46:39.305Z,0.60
2023-01-19T23:49:08.796Z,0.60
2023-01-19T23:51:36.751Z,0.50
2023-01-19T23:54:05.415Z,0.50
2023-01-19T23:56:35.422Z,0.50
2023-01-19T23:59:05.424Z,0.60
